Time;durP1;ratioP1;P1;durP2;ratioP2;P2;SDS_P1;SDS_P2;PMS_P1;PMS_P2;Temp;Humidity;BMP_temperature;BMP_pressure;BME280_temperature;BME280_humidity;BME280_pressure;Samples;Min_cycle;Max_cycle;Signal;HPM_P1;HPM_P2
2022/10/08 00:00:59;;;;;;;6.80;2.10;;;;;;;9.88;80.47;100876.52;105053;1297;60022;-77
2022/10/08 00:03:28;;;;;;;7.00;2.00;;;;;;;9.93;80.12;100872.67;104801;1297;59103;-76
2022/10/08 00:06:01;;;;;;;5.30;2.00;;;;;;;9.97;80.27;100876.09;105241;1290;71688;-76
2022/10/08 00:08:30;;;;;;;6.30;2.00;;;;;;;10.03;79.77;100875.83;105011;1293;70931;-76
2022/10/08 00:11:02;;;;;;;4.50;1.90;;;;;;;10.07;79.50;100873.46;104901;1298;71475;-77
2022/10/08 00:13:39;;;;;;;8.00;1.70;;;;;;;10.11;79.33;100871.07;105064;1299;61419;-77
2022/10/08 00:16:11;;;;;;;9.50;2.00;;;;;;;10.16;78.97;100874.01;104948;1291;60939;-77
2022/10/08 00:18:39;;;;;;;6.30;1.60;;;;;;;10.20;78.68;100872.39;105181;1297;72829;-77
2022/10/08 00:21:13;;;;;;;6.00;1.40;;;;;;;10.24;78.47;100868.96;105006;1292;69305;-77
2022/10/08 00:23:41;;;;;;;5.30;1.70;;;;;;;10.26;78.12;100864.98;104982;1283;72871;-77
2022/10/08 00:26:11;;;;;;;4.10;1.40;;;;;;;10.29;78.00;100864.53;105025;1297;60579;-77
2022/10/08 00:28:42;;;;;;;5.80;1.90;;;;;;;10.30;77.90;100862.80;105124;1292;59244;-76
2022/10/08 00:31:14;;;;;;;5.50;1.60;;;;;;;10.34;77.60;100859.13;105010;1300;73650;-76
2022/10/08 00:33:41;;;;;;;7.50;1.70;;;;;;;10.41;77.19;100856.34;105104;1298;71786;-76
2022/10/08 00:36:11;;;;;;;5.10;1.50;;;;;;;10.47;76.86;100860.55;105152;1297;72940;-76
2022/10/08 00:38:39;;;;;;;6.30;1.80;;;;;;;10.55;76.34;100857.22;105172;1297;61029;-76
2022/10/08 00:41:07;;;;;;;4.80;1.50;;;;;;;10.65;75.92;100854.53;105037;1289;59048;-76
2022/10/08 00:43:52;;;;;;;5.90;1.30;;;;;;;10.73;75.39;100850.99;105232;1289;72610;-76
2022/10/08 00:46:27;;;;;;;4.30;1.40;;;;;;;10.83;74.90;100853.73;105180;1290;70699;-76
2022/10/08 00:49:13;;;;;;;7.00;1.80;;;;;;;10.90;74.54;100849.10;104942;1300;72479;-76
2022/10/08 00:51:46;;;;;;;7.40;1.70;;;;;;;10.94;74.30;100842.80;105190;1297;60482;-76
2022/10/08 00:54:13;;;;;;;5.10;1.60;;;;;;;10.98;73.95;100841.25;105019;1290;59107;-76
2022/10/08 00:56:40;;;;;;;6.20;1.50;;;;;;;11.03;73.66;100833.27;105019;1305;72651;-76
2022/10/08 00:59:09;;;;;;;5.90;1.70;;;;;;;11.07;73.44;100829.27;105157;1293;69683;-76
2022/10/08 01:01:36;;;;;;;6.80;1.50;;;;;;;11.08;73.46;100834.47;105161;1290;70323;-76
2022/10/08 01:04:05;;;;;;;8.70;1.70;;;;;;;11.07;73.35;100835.63;105054;1289;61559;-76
2022/10/08 01:06:47;;;;;;;5.70;1.60;;;;;;;11.03;73.50;100830.77;105060;1281;58278;-76
2022/10/08 01:09:18;;;;;;;5.60;1.60;;;;;;;11.00;73.49;100833.73;105309;1296;73886;-76
2022/10/08 01:11:59;;;;;;;7.80;1.60;;;;;;;10.98;73.69;100832.92;105097;1304;72408;-76
2022/10/08 01:15:19;;;;;;;5.40;1.30;;;;;;;10.95;73.58;100832.16;105215;1296;71566;-76
2022/10/08 01:17:55;;;;;;;7.10;1.70;;;;;;;10.93;73.78;100826.62;104783;1301;62043;-77
2022/10/08 01:20:36;;;;;;;6.10;1.70;;;;;;;10.91;73.77;100827.40;104667;1302;61067;-76
2022/10/08 01:23:18;;;;;;;8.50;1.80;;;;;;;10.89;73.80;100828.86;105129;1289;71691;-77
2022/10/08 01:25:51;;;;;;;9.10;1.60;;;;;;;10.87;73.73;100831.77;105198;1289;69675;-76
2022/10/08 01:28:40;;;;;;;6.50;1.60;;;;;;;10.84;73.74;100828.12;105271;1293;71483;-77
2022/10/08 01:31:26;;;;;;;6.60;1.80;;;;;;;10.79;74.15;100824.05;105178;1289;62190;-77
2022/10/08 01:33:59;;;;;;;6.90;1.60;;;;;;;10.77;74.15;100821.56;105206;1282;60406;-76
2022/10/08 01:36:30;;;;;;;4.80;1.40;;;;;;;10.73;74.24;100816.54;105183;1289;72992;-77
2022/10/08 01:39:00;;;;;;;16.20;1.80;;;;;;;10.70;74.39;100817.06;105285;1288;69344;-77
2022/10/08 01:41:30;;;;;;;7.10;2.10;;;;;;;10.67;74.53;100819.10;105177;1289;70836;-76
2022/10/08 01:44:11;;;;;;;5.90;1.50;;;;;;;10.64;74.54;100819.33;104976;1291;61821;-77
2022/10/08 01:46:41;;;;;;;9.10;1.80;;;;;;;10.60;74.40;100821.09;105216;1289;60673;-77
2022/10/08 01:49:13;;;;;;;4.70;1.50;;;;;;;10.58;74.44;100824.02;105114;1296;72273;-77
2022/10/08 01:51:46;;;;;;;6.00;1.80;;;;;;;10.54;74.55;100822.48;105163;1288;70860;-79
2022/10/08 01:54:16;;;;;;;6.80;2.10;;;;;;;10.50;75.02;100820.48;105059;1291;71237;-76
2022/10/08 01:56:44;;;;;;;9.80;2.10;;;;;;;10.49;75.23;100825.02;105167;1296;60429;-76
2022/10/08 01:59:21;;;;;;;6.80;1.90;;;;;;;10.49;75.67;100823.79;105112;1292;58881;-76
2022/10/08 02:02:03;;;;;;;6.50;2.00;;;;;;;10.51;75.89;100817.99;105232;1296;72665;-76
2022/10/08 02:04:33;;;;;;;8.60;1.70;;;;;;;10.55;76.10;100812.13;105159;1296;70756;-77
2022/10/08 02:07:25;;;;;;;8.80;1.80;;;;;;;10.59;75.99;100810.73;105071;1291;71590;-76
2022/10/08 02:10:14;;;;;;;6.30;1.90;;;;;;;10.63;76.15;100808.74;105181;1288;61978;-76
2022/10/08 02:12:41;;;;;;;6.30;1.70;;;;;;;10.67;75.93;100807.79;105123;1296;60615;-77
2022/10/08 02:15:13;;;;;;;9.30;1.60;;;;;;;10.70;76.33;100809.02;105279;1291;72540;-76
2022/10/08 02:17:42;;;;;;;8.30;2.00;;;;;;;10.77;76.30;100806.85;105157;1292;71534;-76
2022/10/08 02:20:18;;;;;;;6.90;2.00;;;;;;;10.83;76.17;100807.89;105248;1296;72584;-77
2022/10/08 02:25:54;;;;;;;6.00;1.80;;;;;;;10.97;75.92;100808.80;105201;1297;58233;-76
2022/10/08 02:28:28;;;;;;;6.90;2.30;;;;;;;11.02;75.84;100813.77;105030;1299;73668;-77
2022/10/08 02:31:02;;;;;;;7.70;1.90;;;;;;;11.08;75.65;100809.23;105111;1293;71261;-77
2022/10/08 02:33:41;;;;;;;5.90;1.90;;;;;;;11.13;75.45;100810.17;105151;1297;70199;-76
2022/10/08 02:36:10;;;;;;;7.90;2.20;;;;;;;11.17;75.39;100805.64;105125;1292;61199;-76
2022/10/08 02:38:50;;;;;;;7.30;1.90;;;;;;;11.20;75.45;100804.06;105227;1297;58890;-77
2022/10/08 02:41:20;;;;;;;6.40;1.80;;;;;;;11.21;75.34;100798.77;105010;1289;73761;-76
2022/10/08 02:43:52;;;;;;;7.50;2.00;;;;;;;11.23;75.40;100795.08;105040;1298;70153;-77
2022/10/08 02:46:27;;;;;;;7.30;1.90;;;;;;;11.23;75.47;100796.42;105137;1298;72824;-76
2022/10/08 02:49:14;;;;;;;9.40;1.80;;;;;;;11.24;75.55;100796.55;104996;1292;61412;-76
2022/10/08 02:51:47;;;;;;;9.30;2.40;;;;;;;11.25;75.62;100795.04;105027;1297;59502;-76
2022/10/08 02:54:17;;;;;;;8.00;2.10;;;;;;;11.26;75.66;100796.35;105003;1299;73961;-76
2022/10/08 02:57:03;;;;;;;6.80;2.30;;;;;;;11.28;75.64;100796.96;105250;1297;70890;-77
2022/10/08 02:59:35;;;;;;;6.40;2.10;;;;;;;11.30;75.45;100788.80;105165;1290;72818;-76
2022/10/08 03:02:03;;;;;;;8.30;2.10;;;;;;;11.30;75.55;100785.36;105050;1297;62002;-76
2022/10/08 03:04:35;;;;;;;8.10;1.90;;;;;;;11.32;75.38;100779.86;105012;1300;60625;-76
2022/10/08 03:07:03;;;;;;;7.60;2.10;;;;;;;11.32;75.50;100783.40;105147;1297;73235;-76
2022/10/08 03:09:38;;;;;;;11.40;2.20;;;;;;;11.32;75.42;100781.84;105122;1297;69662;-76
2022/10/08 03:12:06;;;;;;;9.90;2.20;;;;;;;11.30;75.47;100780.91;105013;1284;71147;-76
2022/10/08 03:14:37;;;;;;;8.00;2.10;;;;;;;11.29;75.65;100786.40;105021;1300;61783;-76
2022/10/08 03:17:09;;;;;;;13.10;2.30;;;;;;;11.28;75.58;100786.99;105226;1297;60143;-75
2022/10/08 03:19:36;;;;;;;8.80;2.00;;;;;;;11.30;75.64;100781.35;105019;1290;73856;-76
2022/10/08 03:22:03;;;;;;;7.50;2.00;;;;;;;11.30;75.53;100783.77;104992;1298;58439;-76
2022/10/08 03:24:29;;;;;;;8.30;2.30;;;;;;;11.27;75.60;100778.28;105045;1300;74372;-76
2022/10/08 03:26:56;;;;;;;8.20;1.80;;;;;;;11.27;75.76;100782.60;105035;1298;58151;-76
2022/10/08 03:29:22;;;;;;;8.80;2.30;;;;;;;11.27;75.78;100787.73;105092;1288;58651;-77
2022/10/08 03:31:49;;;;;;;10.30;2.10;;;;;;;11.27;75.84;100786.29;105155;1297;59030;-76
2022/10/08 03:34:16;;;;;;;10.00;2.20;;;;;;;11.26;75.80;100788.64;105155;1297;69836;-76
2022/10/08 03:36:42;;;;;;;7.60;1.70;;;;;;;11.26;75.85;100788.88;104983;1300;58411;-76
2022/10/08 03:39:12;;;;;;;10.40;2.20;;;;;;;11.25;75.98;100785.98;105158;1283;58616;-77
2022/10/08 03:41:39;;;;;;;6.60;2.00;;;;;;;11.24;75.98;100784.50;105113;1297;59940;-76
2022/10/08 03:44:08;;;;;;;10.30;2.60;;;;;;;11.22;76.02;100783.44;104578;1292;588958;-76
2022/10/08 03:46:34;;;;;;;9.80;1.90;;;;;;;11.22;76.47;100786.29;105167;1297;70870;-77
2022/10/08 03:49:01;;;;;;;6.80;2.00;;;;;;;11.23;76.53;100784.79;104983;1299;72521;-76
2022/10/08 03:51:27;;;;;;;8.60;2.20;;;;;;;11.25;76.62;100788.95;105155;1294;58278;-76
2022/10/08 03:53:54;;;;;;;9.20;2.10;;;;;;;11.30;76.53;100794.59;105082;1300;57827;-76
2022/10/08 03:56:24;;;;;;;6.80;2.00;;;;;;;11.35;76.55;100798.85;105195;1296;58206;-77
2022/10/08 03:58:57;;;;;;;9.00;2.10;;;;;;;11.41;76.45;100797.96;105005;1300;71038;-77
2022/10/08 04:01:26;;;;;;;7.40;2.00;;;;;;;11.46;76.41;100792.05;104862;1302;73617;-77
2022/10/08 04:03:53;;;;;;;8.90;1.90;;;;;;;11.51;76.30;100790.95;104983;1290;62051;-78
2022/10/08 04:06:20;;;;;;;10.30;2.10;;;;;;;11.56;76.33;100794.27;105162;1297;60167;-77
2022/10/08 04:08:46;;;;;;;7.50;2.20;;;;;;;11.60;76.27;100795.73;105019;1300;72924;-76
2022/10/08 04:11:18;;;;;;;9.90;2.00;;;;;;;11.63;76.20;100796.79;105000;1300;69942;-77
2022/10/08 04:13:44;;;;;;;8.50;2.00;;;;;;;11.67;76.19;100790.08;105086;1297;71842;-76
2022/10/08 04:16:14;;;;;;;10.80;3.60;;;;;;;11.70;76.16;100790.33;105081;1300;61755;-77
2022/10/08 04:18:42;;;;;;;11.30;2.00;;;;;;;11.72;76.10;100789.75;104978;1293;58871;-77
2022/10/08 04:21:11;;;;;;;10.60;2.50;;;;;;;11.73;76.11;100790.10;104913;1303;73107;-77
2022/10/08 04:23:39;;;;;;;8.90;2.60;;;;;;;11.74;76.13;100795.46;105126;1297;70929;-77
2022/10/08 04:26:07;;;;;;;9.20;2.20;;;;;;;11.76;76.18;100799.70;105043;1298;72700;-76
2022/10/08 04:28:36;;;;;;;8.80;2.10;;;;;;;11.78;76.23;100795.52;105066;1298;60630;-77
2022/10/08 04:31:07;;;;;;;10.90;2.20;;;;;;;11.81;76.17;100798.06;104988;1297;60456;-76
2022/10/08 04:33:34;;;;;;;9.00;1.90;;;;;;;11.83;76.13;100799.92;105192;1297;73242;-77
2022/10/08 04:36:05;;;;;;;8.80;2.20;;;;;;;11.86;76.17;100796.21;105096;1292;68790;-77
2022/10/08 04:38:31;;;;;;;8.80;2.10;;;;;;;11.87;76.37;100801.30;105067;1299;71149;-77
2022/10/08 04:41:11;;;;;;;8.30;2.20;;;;;;;11.87;76.40;100797.04;105120;1289;58288;-76
2022/10/08 04:43:40;;;;;;;8.90;2.50;;;;;;;11.88;76.41;100792.70;105028;1292;60392;-77
2022/10/08 04:46:08;;;;;;;9.10;2.50;;;;;;;11.88;76.53;100794.64;104833;1297;74644;-76
2022/10/08 04:48:35;;;;;;;10.00;2.50;;;;;;;11.87;76.75;100789.10;105096;1299;72597;-78
2022/10/08 04:51:03;;;;;;;7.20;2.30;;;;;;;11.87;76.74;100789.64;105064;1300;73470;-77
2022/10/08 04:53:35;;;;;;;7.10;2.10;;;;;;;11.87;76.83;100789.03;105077;1291;60907;-76
2022/10/08 04:56:15;;;;;;;9.80;2.10;;;;;;;11.87;77.05;100790.86;105067;1297;58175;-76
2022/10/08 04:58:43;;;;;;;9.80;2.20;;;;;;;11.87;77.13;100785.52;105075;1297;71489;-76
2022/10/08 05:01:12;;;;;;;7.90;3.00;;;;;;;11.84;77.43;100786.16;104993;1300;71348;-78
2022/10/08 05:03:42;;;;;;;7.00;2.00;;;;;;;11.81;77.84;100788.05;105024;1300;72746;-76
2022/10/08 05:06:10;;;;;;;8.10;2.00;;;;;;;11.79;78.08;100789.36;105140;1297;60850;-77
2022/10/08 05:08:36;;;;;;;7.80;2.30;;;;;;;11.77;78.26;100793.15;104985;1300;59594;-77
2022/10/08 05:11:03;;;;;;;5.90;2.10;;;;;;;11.75;78.64;100799.84;104991;1292;72286;-77
2022/10/08 05:13:30;;;;;;;9.30;2.50;;;;;;;11.73;78.44;100801.63;105052;1298;70888;-76
2022/10/08 05:16:01;;;;;;;8.60;2.80;;;;;;;11.73;78.90;100806.98;105048;1302;58712;-76
2022/10/08 05:18:30;;;;;;;7.50;2.60;;;;;;;11.75;78.78;100809.25;105129;1287;60041;-76
2022/10/08 05:21:01;;;;;;;11.10;2.90;;;;;;;11.77;78.75;100812.73;105053;1289;58809;-77
2022/10/08 05:23:27;;;;;;;9.50;2.90;;;;;;;11.76;79.29;100814.22;104978;1276;71751;-76
2022/10/08 05:25:53;;;;;;;8.40;3.10;;;;;;;11.77;79.18;100817.30;105189;1297;58547;-77
2022/10/08 05:28:20;;;;;;;10.60;3.00;;;;;;;11.78;79.74;100821.30;105186;1297;59216;-76
2022/10/08 05:30:46;;;;;;;10.20;3.60;;;;;;;11.78;79.94;100824.30;105160;1290;58213;-77
2022/10/08 05:33:13;;;;;;;10.70;3.40;;;;;;;11.76;80.28;100815.45;105170;1290;58360;-76
2022/10/08 05:35:39;;;;;;;12.90;3.60;;;;;;;11.76;80.32;100820.23;105062;1297;59473;-77
2022/10/08 05:38:06;;;;;;;13.30;3.10;;;;;;;11.75;80.31;100824.50;105033;1300;58229;-76
2022/10/08 05:40:32;;;;;;;11.90;3.70;;;;;;;11.75;80.43;100821.67;105014;1298;58426;-76
2022/10/08 05:42:58;;;;;;;11.40;4.30;;;;;;;11.76;80.33;100828.81;105045;1300;58486;-76
2022/10/08 05:45:25;;;;;;;10.40;3.90;;;;;;;11.75;80.91;100830.86;105154;1297;58313;-77
2022/10/08 05:47:51;;;;;;;12.10;4.10;;;;;;;11.78;81.12;100836.36;105061;1297;58720;-77
2022/10/08 05:50:18;;;;;;;13.30;5.10;;;;;;;11.82;81.32;100839.21;104972;1300;59546;-77
2022/10/08 05:52:44;;;;;;;12.50;4.40;;;;;;;11.85;81.33;100842.94;105125;1295;58423;-77
2022/10/08 05:55:11;;;;;;;13.30;4.90;;;;;;;11.89;81.19;100848.98;104989;1294;59203;-77
2022/10/08 05:57:37;;;;;;;14.00;4.60;;;;;;;11.92;81.30;100846.51;105067;1300;58581;-77
2022/10/08 06:00:04;;;;;;;12.50;4.30;;;;;;;11.93;81.48;100850.06;105183;1296;58431;-76
2022/10/08 06:02:30;;;;;;;14.50;5.00;;;;;;;11.94;81.44;100852.52;105068;1297;58473;-76
2022/10/08 06:04:57;;;;;;;10.20;4.10;;;;;;;11.95;81.51;100854.45;105049;1297;58580;-76
2022/10/08 06:07:24;;;;;;;11.10;4.80;;;;;;;11.96;81.57;100859.27;105029;1292;58345;-76
2022/10/08 06:09:51;;;;;;;12.10;5.40;;;;;;;12.00;81.59;100863.41;105143;1297;58316;-77
2022/10/08 06:12:17;;;;;;;11.60;4.60;;;;;;;12.01;81.97;100865.60;105004;1293;72504;-77
2022/10/08 06:14:44;;;;;;;14.80;5.30;;;;;;;12.00;82.47;100866.40;105071;1300;59121;-78
2022/10/08 06:17:10;;;;;;;12.70;6.20;;;;;;;11.99;83.06;100863.33;105060;1299;72954;-77
2022/10/08 06:19:37;;;;;;;14.00;5.70;;;;;;;11.97;83.57;100861.64;105052;1297;62002;-76
2022/10/08 06:22:03;;;;;;;15.30;6.00;;;;;;;11.98;83.59;100855.58;105172;1296;58641;-77
2022/10/08 06:24:30;;;;;;;17.10;6.80;;;;;;;12.00;83.68;100857.66;105174;1297;58722;-76
2022/10/08 06:26:57;;;;;;;16.00;7.00;;;;;;;12.02;83.88;100848.80;104961;1300;69268;-76
2022/10/08 06:29:23;;;;;;;18.00;7.00;;;;;;;12.03;83.86;100863.59;105008;1300;58312;-76
2022/10/08 06:31:50;;;;;;;15.30;7.70;;;;;;;12.07;83.85;100871.60;105113;1298;61961;-77
2022/10/08 06:34:17;;;;;;;16.10;7.70;;;;;;;12.09;84.01;100876.16;105064;1297;58857;-76
2022/10/08 06:36:43;;;;;;;19.00;8.50;;;;;;;12.12;83.84;100881.35;105141;1297;58558;-76
2022/10/08 06:39:13;;;;;;;17.00;9.10;;;;;;;12.15;83.86;100874.58;105136;1289;59120;-77
2022/10/08 06:41:39;;;;;;;18.30;8.00;;;;;;;12.16;83.89;100887.16;104981;1300;72516;-77
2022/10/08 06:44:10;;;;;;;16.60;8.40;;;;;;;12.18;83.83;100886.21;105066;1296;58295;-77
2022/10/08 06:46:36;;;;;;;16.50;8.10;;;;;;;12.20;83.93;100899.81;104979;1300;60398;-78
2022/10/08 06:49:04;;;;;;;15.90;8.00;;;;;;;12.19;83.92;100906.15;104927;1297;58159;-77
2022/10/08 06:51:32;;;;;;;14.70;8.00;;;;;;;12.22;83.95;100892.03;105058;1299;72609;-76
2022/10/08 06:53:58;;;;;;;13.40;7.00;;;;;;;12.27;83.80;100888.98;104996;1292;72706;-77
2022/10/08 06:56:34;;;;;;;15.10;6.70;;;;;;;12.33;83.61;100897.20;104849;1302;60319;-77
2022/10/08 06:59:02;;;;;;;15.80;6.80;;;;;;;12.35;83.33;100894.36;105045;1292;61242;-77
2022/10/08 07:01:28;;;;;;;10.60;5.80;;;;;;;12.34;83.58;100897.34;105034;1297;72722;-77
2022/10/08 07:04:00;;;;;;;18.10;11.60;;;;;;;12.32;83.53;100906.80;105174;1296;71374;-76
2022/10/08 07:06:28;;;;;;;21.80;11.40;;;;;;;12.29;84.30;100902.90;104871;1294;72846;-76
2022/10/08 07:08:56;;;;;;;22.40;14.30;;;;;;;12.25;84.49;100912.05;105047;1301;61362;-76
2022/10/08 07:11:24;;;;;;;18.30;10.50;;;;;;;12.25;84.42;100911.75;105081;1297;60610;-76
2022/10/08 07:13:50;;;;;;;13.70;7.10;;;;;;;12.22;84.62;100916.30;105134;1289;74065;-76
2022/10/08 07:16:20;;;;;;;16.20;10.70;;;;;;;12.24;84.72;100922.99;105032;1304;69828;-76
2022/10/08 07:18:50;;;;;;;26.30;15.90;;;;;;;12.23;84.79;100921.34;104915;1295;71288;-76
2022/10/08 07:21:19;;;;;;;19.40;9.60;;;;;;;12.26;85.13;100922.05;105059;1297;62039;-76
2022/10/08 07:23:46;;;;;;;22.90;13.10;;;;;;;12.31;85.17;100924.86;104930;1297;59635;-75
2022/10/08 07:26:15;;;;;;;50.90;32.50;;;;;;;12.38;84.96;100933.90;104956;1299;72764;-75
2022/10/08 07:29:07;;;;;;;13.80;7.10;;;;;;;12.43;85.00;100941.17;105000;1302;72102;-75
2022/10/08 07:31:35;;;;;;;13.50;8.80;;;;;;;12.47;84.91;100945.70;105182;1296;74318;-75
2022/10/08 07:34:09;;;;;;;20.50;11.60;;;;;;;12.46;85.09;100954.68;104900;1297;62154;-75
2022/10/08 07:36:36;;;;;;;23.40;12.10;;;;;;;12.46;85.48;100956.91;104895;1293;59827;-76
2022/10/08 07:39:06;;;;;;;16.60;8.90;;;;;;;12.46;85.38;100968.16;104986;1282;75422;-75
2022/10/08 07:41:33;;;;;;;14.80;8.20;;;;;;;12.42;85.77;100972.80;104973;1300;70178;-76
2022/10/08 07:44:01;;;;;;;16.00;8.90;;;;;;;12.43;85.79;100974.30;105218;1289;74233;-75
2022/10/08 07:46:30;;;;;;;14.80;7.30;;;;;;;12.47;86.20;100979.68;104927;1305;61098;-75
2022/10/08 07:49:00;;;;;;;17.00;7.90;;;;;;;12.51;86.22;100982.11;105039;1297;59095;-76
2022/10/08 07:51:29;;;;;;;15.00;7.20;;;;;;;12.55;86.00;100985.33;105051;1297;72468;-75
2022/10/08 07:53:57;;;;;;;12.90;7.50;;;;;;;12.62;85.96;100986.95;104987;1293;69571;-75
2022/10/08 07:56:28;;;;;;;16.80;7.40;;;;;;;12.72;85.45;100989.43;105018;1291;72263;-75
2022/10/08 07:58:54;;;;;;;17.20;8.30;;;;;;;12.78;85.18;100990.77;105230;1297;60396;-75
2022/10/08 08:01:27;;;;;;;12.60;7.60;;;;;;;12.85;85.08;100990.83;105059;1292;58103;-75
2022/10/08 08:03:56;;;;;;;10.90;6.80;;;;;;;12.91;84.67;100993.13;105019;1294;71800;-75
2022/10/08 08:06:23;;;;;;;13.60;6.90;;;;;;;12.95;84.08;100995.44;104980;1292;71968;-75
2022/10/08 08:08:51;;;;;;;10.40;5.30;;;;;;;12.98;84.00;101001.50;105025;1292;71839;-75
2022/10/08 08:11:19;;;;;;;10.80;4.90;;;;;;;12.99;83.16;101009.70;104915;1299;60531;-76
2022/10/08 08:13:46;;;;;;;9.30;4.40;;;;;;;13.01;82.93;101008.92;105246;1291;58829;-76
2022/10/08 08:16:16;;;;;;;9.40;4.20;;;;;;;13.06;82.63;101015.10;104984;1287;72864;-76
2022/10/08 08:18:46;;;;;;;8.50;4.10;;;;;;;13.10;82.21;101018.46;105027;1298;71125;-76
2022/10/08 08:21:16;;;;;;;7.80;3.60;;;;;;;13.08;82.24;101020.11;105032;1297;71428;-75
2022/10/08 08:23:46;;;;;;;11.50;3.90;;;;;;;13.02;82.13;101028.76;105217;1297;60473;-75
2022/10/08 08:26:15;;;;;;;7.40;3.90;;;;;;;12.94;82.52;101026.69;105002;1295;58991;-75
2022/10/08 08:28:42;;;;;;;10.00;4.20;;;;;;;12.88;82.56;101024.08;105012;1295;72377;-75
2022/10/08 08:31:11;;;;;;;8.60;4.00;;;;;;;12.86;83.13;101032.29;105139;1296;70212;-76
2022/10/08 08:33:38;;;;;;;8.90;3.90;;;;;;;12.83;83.03;101036.64;104996;1300;71126;-76
2022/10/08 08:36:05;;;;;;;10.10;5.70;;;;;;;12.87;82.88;101050.73;104985;1300;60627;-75
2022/10/08 08:38:36;;;;;;;7.40;3.40;;;;;;;12.91;82.65;101040.56;105000;1301;58997;-76
2022/10/08 08:41:31;;;;;;;10.50;3.70;;;;;;;12.95;82.23;101041.15;104865;1303;73410;-76
2022/10/08 08:44:17;;;;;;;6.50;3.30;;;;;;;13.08;81.78;101049.14;105210;1295;71191;-76
2022/10/08 08:47:07;;;;;;;8.70;3.30;;;;;;;13.25;81.33;101048.74;105171;1294;71131;-76
2022/10/08 08:49:42;;;;;;;7.50;3.50;;;;;;;13.35;80.60;101050.20;105166;1298;60382;-76
2022/10/08 08:52:13;;;;;;;8.10;3.20;;;;;;;13.44;80.61;101049.50;104958;1297;59228;-76
2022/10/08 08:54:40;;;;;;;7.30;3.00;;;;;;;13.50;79.40;101052.76;104992;1297;71741;-76
2022/10/08 08:57:46;;;;;;;5.80;2.70;;;;;;;13.53;79.19;101049.85;105024;1300;69663;-76
2022/10/08 09:00:16;;;;;;;6.20;3.10;;;;;;;13.71;78.59;101060.13;104862;1302;72468;-76
2022/10/08 09:02:51;;;;;;;6.30;2.70;;;;;;;13.91;77.51;101058.27;105041;1296;61830;-76
2022/10/08 09:05:18;;;;;;;7.30;2.50;;;;;;;14.01;77.50;101063.79;105151;1296;59457;-76
2022/10/08 09:07:52;;;;;;;6.00;3.30;;;;;;;14.02;77.12;101065.81;104962;1297;75245;-76
2022/10/08 09:10:34;;;;;;;5.80;2.70;;;;;;;14.08;76.59;101068.46;105057;1300;70917;-76
2022/10/08 09:13:01;;;;;;;8.70;3.00;;;;;;;14.04;75.95;101068.54;104981;1297;71166;-75
2022/10/08 09:15:33;;;;;;;8.30;2.70;;;;;;;14.08;76.55;101072.73;105077;1303;61763;-74
2022/10/08 09:18:02;;;;;;;7.60;2.60;;;;;;;14.11;76.53;101073.89;105030;1300;58895;-76
2022/10/08 09:20:30;;;;;;;6.10;2.40;;;;;;;14.17;76.22;101072.45;105066;1299;74033;-76
2022/10/08 09:22:58;;;;;;;5.40;2.30;;;;;;;14.28;75.71;101084.56;105274;1298;68536;-76
2022/10/08 09:25:30;;;;;;;6.30;2.80;;;;;;;14.52;75.42;101088.99;105065;1298;72472;-76
2022/10/08 09:28:03;;;;;;;9.00;2.80;;;;;;;14.61;74.39;101092.49;105011;1297;59506;-76
2022/10/08 09:30:43;;;;;;;6.30;2.60;;;;;;;14.59;74.35;101097.21;105023;1296;58940;-76
2022/10/08 09:33:17;;;;;;;7.20;2.60;;;;;;;14.63;74.19;101093.83;105105;1299;74320;-76
2022/10/08 09:35:47;;;;;;;6.20;2.30;;;;;;;14.72;73.99;101089.88;105264;1297;72563;-76
2022/10/08 09:38:25;;;;;;;9.00;2.80;;;;;;;14.71;73.63;101090.91;104999;1295;72982;-75
2022/10/08 09:41:03;;;;;;;4.10;2.30;;;;;;;14.81;73.63;101098.34;105070;1298;60782;-76
2022/10/08 09:43:32;;;;;;;6.30;2.40;;;;;;;14.83;73.66;101095.61;105207;1295;60318;-76
2022/10/08 09:46:03;;;;;;;8.00;2.80;;;;;;;14.74;73.21;101098.69;104990;1297;74530;-76
2022/10/08 09:48:30;;;;;;;6.60;2.30;;;;;;;14.79;73.30;101096.64;105254;1296;70181;-76
2022/10/08 09:50:59;;;;;;;6.70;2.30;;;;;;;14.96;73.18;101093.66;104987;1298;71455;-76
2022/10/08 09:53:49;;;;;;;6.30;2.30;;;;;;;15.09;72.07;101105.67;105245;1294;60286;-76
2022/10/08 09:56:26;;;;;;;8.50;2.10;;;;;;;15.16;70.27;101102.31;105089;1295;60092;-76
2022/10/08 09:58:57;;;;;;;9.50;2.60;;;;;;;15.25;69.99;101100.81;105091;1291;73288;-75
2022/10/08 10:01:24;;;;;;;5.50;1.60;;;;;;;15.37;69.45;101099.92;104970;1302;72806;-74
2022/10/08 10:03:57;;;;;;;8.60;2.20;;;;;;;15.51;67.92;101104.13;104994;1290;71498;-75
2022/10/08 10:06:36;;;;;;;9.30;2.20;;;;;;;15.57;67.23;101102.84;104988;1291;62063;-75
2022/10/08 10:09:17;;;;;;;6.60;2.00;;;;;;;15.61;67.70;101106.98;105011;1298;59433;-75
2022/10/08 10:11:51;;;;;;;8.60;2.00;;;;;;;15.73;66.72;101108.41;105270;1294;74734;-75
2022/10/08 10:14:43;;;;;;;5.60;1.80;;;;;;;15.73;66.37;101109.32;104982;1306;70302;-75
2022/10/08 10:17:29;;;;;;;5.90;1.80;;;;;;;15.69;66.13;101116.77;105175;1297;71583;-74
2022/10/08 10:20:04;;;;;;;5.70;1.60;;;;;;;15.71;65.64;101112.05;105060;1296;62598;-75
2022/10/08 10:22:54;;;;;;;4.70;1.60;;;;;;;15.65;65.47;101117.60;105280;1297;59712;-74
2022/10/08 10:25:37;;;;;;;6.90;1.80;;;;;;;15.83;65.86;101115.17;105282;1294;73144;-75
2022/10/08 10:28:10;;;;;;;6.90;1.90;;;;;;;15.94;65.15;101113.04;105087;1298;70215;-74
2022/10/08 10:30:48;;;;;;;6.20;1.90;;;;;;;16.08;64.31;101110.86;104971;1301;72667;-75
2022/10/08 10:33:24;;;;;;;7.30;1.80;;;;;;;16.24;62.90;101114.81;105037;1297;62613;-74
2022/10/08 10:35:59;;;;;;;6.70;2.30;;;;;;;16.38;62.73;101116.63;105247;1298;59832;-75
2022/10/08 10:38:31;;;;;;;6.80;2.10;;;;;;;16.56;62.76;101109.20;105002;1299;73387;-74
2022/10/08 10:41:10;;;;;;;5.20;1.90;;;;;;;16.77;61.92;101108.73;105008;1301;70165;-74
2022/10/08 10:43:51;;;;;;;6.40;1.50;;;;;;;16.97;60.94;101105.08;105225;1294;71007;-75
2022/10/08 10:46:27;;;;;;;6.60;1.80;;;;;;;17.06;59.42;101107.79;105061;1298;61860;-75
2022/10/08 10:48:55;;;;;;;7.00;1.80;;;;;;;17.19;59.59;101119.86;105080;1294;59063;-75
2022/10/08 10:51:24;;;;;;;6.40;1.80;;;;;;;17.34;59.83;101104.57;105001;1298;74044;-75
2022/10/08 10:54:05;;;;;;;5.40;1.60;;;;;;;17.47;59.45;101104.49;105212;1296;72335;-75
2022/10/08 10:56:45;;;;;;;6.00;1.80;;;;;;;17.53;58.39;101102.67;105236;1296;71357;-75
2022/10/08 10:59:37;;;;;;;6.90;1.60;;;;;;;17.49;58.42;101102.64;104963;1298;60574;-75
2022/10/08 11:02:14;;;;;;;5.80;1.60;;;;;;;17.47;58.18;101097.08;105293;1294;60191;-75
2022/10/08 11:04:49;;;;;;;5.40;1.40;;;;;;;17.44;58.44;101095.84;105114;1298;73500;-75
2022/10/08 11:07:40;;;;;;;4.90;1.30;;;;;;;17.24;58.55;101100.72;105027;1298;69692;-75
2022/10/08 11:10:16;;;;;;;6.50;1.50;;;;;;;17.09;59.21;101099.70;105276;1291;70911;-75
2022/10/08 11:13:03;;;;;;;5.20;1.30;;;;;;;17.14;59.04;101092.44;105068;1297;60533;-74
2022/10/08 11:16:04;;;;;;;5.80;1.60;;;;;;;17.12;59.18;101092.94;105120;1298;59555;-75
2022/10/08 11:18:42;;;;;;;6.70;1.70;;;;;;;17.10;59.82;101098.18;105178;1298;74031;-74
2022/10/08 11:21:26;;;;;;;5.20;1.60;;;;;;;17.14;58.90;101104.39;105116;1298;70897;-75
2022/10/08 11:24:12;;;;;;;7.10;1.40;;;;;;;16.94;58.01;101097.16;105072;1290;71699;-75
2022/10/08 11:27:16;;;;;;;7.90;1.90;;;;;;;16.80;59.22;101109.73;105257;1296;59066;-74
2022/10/08 11:29:42;;;;;;;3.50;1.50;;;;;;;16.63;61.13;101113.53;105065;1299;60115;-74
2022/10/08 11:32:13;;;;;;;4.30;1.50;;;;;;;16.61;62.65;101110.44;105259;1296;59388;-74
2022/10/08 11:34:53;;;;;;;5.60;1.50;;;;;;;16.82;60.84;101109.86;105111;1295;69052;-74
2022/10/08 11:37:23;;;;;;;3.10;1.10;;;;;;;17.22;59.87;101105.70;105109;1296;72248;-74
2022/10/08 11:40:27;;;;;;;4.70;1.80;;;;;;;17.29;58.20;101110.65;105255;1299;59957;-74